Terminal Aerodrome Forecast
Issued by NWS

Home | Current Version | Previous Version | Text Only | Print | Product List | Glossary On
Versions: 1 2 3 4 5 6 7 8 9 10 11 12 13 14 15 16 17 18 19 20 21 22
930
FTUS41 KPBZ 300714 AAA
TAFFKL
TAF AMD
KFKL 300714Z 3007/3106 19006KT P6SM BKN250
     FM300730 19005KT P6SM -SHRA BKN050
     FM300900 19005KT P6SM BKN250
     FM310100 25004KT P6SM SCT250
      AMD LTD TO CLD VIS AND WIND=

USA.gov is the U.S. government's official web portal to all federal, state and local government web resources and services.